Time;durP1;ratioP1;P1;durP2;ratioP2;P2;SDS_P1;SDS_P2;PMS_P1;PMS_P2;Temp;Humidity;BMP_temperature;BMP_pressure;BME280_temperature;BME280_humidity;BME280_pressure;Samples;Min_cycle;Max_cycle;Signal;HPM_P1;HPM_P2
2023/12/23 00:01:37;;;;;;;2.42;1.15;;;;;;;;;;5076795;28;20052;-71
2023/12/23 00:04:03;;;;;;;1.50;0.93;;;;;;;;;;5076753;28;20431;-72
2023/12/23 00:06:28;;;;;;;2.08;1.20;;;;;;;;;;5076966;28;20398;-72
2023/12/23 00:08:54;;;;;;;1.90;0.90;;;;;;;;;;5076586;28;20390;-72
2023/12/23 00:11:25;;;;;;;2.58;1.27;;;;;;;;;;5076640;28;20091;-72
2023/12/23 00:13:51;;;;;;;2.78;1.63;;;;;;;;;;5076836;28;20032;-72
2023/12/23 00:16:16;;;;;;;2.30;1.15;;;;;;;;;;5077057;28;20043;-72
2023/12/23 00:18:41;;;;;;;2.25;0.90;;;;;;;;;;5076681;28;20036;-72
2023/12/23 00:21:07;;;;;;;1.17;0.85;;;;;;;;;;5041905;28;20060;-71
2023/12/23 00:23:32;;;;;;;1.90;1.13;;;;;;;;;;5075126;28;20111;-71
2023/12/23 00:25:58;;;;;;;2.70;0.98;;;;;;;;;;5058423;28;20039;-71
2023/12/23 00:28:23;;;;;;;1.33;0.70;;;;;;;;;;5076358;28;20048;-71
2023/12/23 00:30:48;;;;;;;1.63;1.20;;;;;;;;;;5058305;28;20036;-71
2023/12/23 00:33:14;;;;;;;3.38;1.20;;;;;;;;;;5058254;28;20455;-71
2023/12/23 00:35:41;;;;;;;1.38;0.63;;;;;;;;;;5076106;28;20064;-71
2023/12/23 00:38:07;;;;;;;3.08;0.90;;;;;;;;;;5058086;28;20032;-71
2023/12/23 00:40:33;;;;;;;1.00;0.73;;;;;;;;;;5076351;28;20028;-71
2023/12/23 00:42:58;;;;;;;1.83;1.30;;;;;;;;;;5057976;28;20048;-71
2023/12/23 00:45:25;;;;;;;3.05;1.10;;;;;;;;;;5058085;28;20071;-71
2023/12/23 00:47:50;;;;;;;2.03;1.17;;;;;;;;;;5075948;28;20127;-71
2023/12/23 00:50:15;;;;;;;4.20;1.30;;;;;;;;;;5058341;28;20035;-72
2023/12/23 00:52:41;;;;;;;2.20;0.93;;;;;;;;;;5076158;28;20028;-72
2023/12/23 00:55:06;;;;;;;1.98;0.52;;;;;;;;;;5076092;28;20096;-71
2023/12/23 00:57:32;;;;;;;1.17;0.80;;;;;;;;;;5076038;28;20029;-72
2023/12/23 00:59:57;;;;;;;2.60;1.08;;;;;;;;;;5075928;28;20032;-72
2023/12/23 01:02:23;;;;;;;3.08;1.00;;;;;;;;;;5075734;28;20470;-72
2023/12/23 01:04:49;;;;;;;0.93;0.65;;;;;;;;;;5058268;28;20021;-72
2023/12/23 01:07:14;;;;;;;1.80;0.60;;;;;;;;;;5074741;28;20048;-72
2023/12/23 01:09:40;;;;;;;0.90;0.47;;;;;;;;;;5075819;28;20462;-72
2023/12/23 01:12:06;;;;;;;0.82;0.50;;;;;;;;;;5057819;28;20035;-72
2023/12/23 01:14:32;;;;;;;2.45;1.10;;;;;;;;;;5075952;28;20037;-71
2023/12/23 01:16:57;;;;;;;1.45;0.90;;;;;;;;;;5075440;28;20505;-71
2023/12/23 01:19:23;;;;;;;0.98;0.80;;;;;;;;;;5075218;28;20029;-71
2023/12/23 01:21:48;;;;;;;0.93;0.75;;;;;;;;;;5057334;28;20032;-71
2023/12/23 01:24:14;;;;;;;1.10;0.57;;;;;;;;;;5075791;28;20113;-72
2023/12/23 01:26:39;;;;;;;3.35;1.17;;;;;;;;;;5075148;28;20021;-71
2023/12/23 01:29:04;;;;;;;1.30;0.90;;;;;;;;;;5057133;28;20522;-72
2023/12/23 01:32:17;;;;;;;1.70;1.05;;;;;;;;;;5074182;23;20135;-71
2023/12/23 01:34:47;;;;;;;2.40;0.80;;;;;;;;;;5057576;22;20056;-67
2023/12/23 01:37:12;;;;;;;1.42;0.80;;;;;;;;;;5075304;28;20078;-68
2023/12/23 01:39:37;;;;;;;1.15;1.05;;;;;;;;;;5057071;28;20044;-67
2023/12/23 01:42:03;;;;;;;1.10;0.60;;;;;;;;;;5087711;22;20060;-71
2023/12/23 01:47:48;;;;;;;1.30;1.17;;;;;;;;;;5052704;28;20068;-71
2023/12/23 01:50:14;;;;;;;3.25;1.00;;;;;;;;;;5055033;28;20025;-71
2023/12/23 01:52:40;;;;;;;1.23;0.90;;;;;;;;;;5053451;28;20037;-71
2023/12/23 01:55:07;;;;;;;1.63;0.82;;;;;;;;;;5053325;28;20083;-71
2023/12/23 01:57:33;;;;;;;1.45;0.70;;;;;;;;;;5053388;28;20120;-70
2023/12/23 01:59:58;;;;;;;1.65;0.90;;;;;;;;;;5036624;28;20120;-71
2023/12/23 02:02:27;;;;;;;2.08;0.93;;;;;;;;;;5053228;28;20025;-71
2023/12/23 02:04:52;;;;;;;1.92;0.77;;;;;;;;;;5053846;28;20029;-71
2023/12/23 02:07:18;;;;;;;1.00;0.80;;;;;;;;;;5054043;28;20025;-71
2023/12/23 02:09:43;;;;;;;1.98;0.98;;;;;;;;;;5053147;28;20037;-71
2023/12/23 02:12:19;;;;;;;2.28;0.80;;;;;;;;;;5054643;28;20506;-71
2023/12/23 02:14:50;;;;;;;3.20;1.10;;;;;;;;;;5054567;28;20067;-71
2023/12/23 02:17:16;;;;;;;3.67;1.20;;;;;;;;;;5036386;28;20044;-72
2023/12/23 02:19:43;;;;;;;0.75;0.70;;;;;;;;;;5052862;28;20036;-72
2023/12/23 02:22:08;;;;;;;2.00;0.88;;;;;;;;;;5054162;28;20033;-72
2023/12/23 02:24:33;;;;;;;1.63;0.55;;;;;;;;;;5053452;28;20036;-71
2023/12/23 02:27:02;;;;;;;2.97;0.95;;;;;;;;;;5054359;28;20025;-71
2023/12/23 02:29:28;;;;;;;1.63;0.82;;;;;;;;;;5054104;28;20158;-71
2023/12/23 02:31:54;;;;;;;1.42;0.60;;;;;;;;;;5052765;28;20025;-71
2023/12/23 02:34:20;;;;;;;1.63;0.90;;;;;;;;;;5054299;28;20489;-71
2023/12/23 02:36:45;;;;;;;1.90;0.70;;;;;;;;;;5053943;28;20087;-71
2023/12/23 02:39:11;;;;;;;2.55;0.80;;;;;;;;;;5053820;28;20112;-72
2023/12/23 02:41:36;;;;;;;0.90;0.73;;;;;;;;;;5053864;28;20048;-71
2023/12/23 02:44:02;;;;;;;1.83;0.88;;;;;;;;;;5053784;28;20159;-72
2023/12/23 02:46:28;;;;;;;2.75;1.02;;;;;;;;;;5053619;28;20047;-72
2023/12/23 02:48:53;;;;;;;3.08;1.00;;;;;;;;;;5053302;28;20417;-70
2023/12/23 02:51:19;;;;;;;2.90;0.80;;;;;;;;;;5054043;28;20029;-70
2023/12/23 02:53:44;;;;;;;1.75;1.08;;;;;;;;;;5052464;28;20487;-71
2023/12/23 02:56:09;;;;;;;2.20;0.93;;;;;;;;;;5052404;28;20501;-70
2023/12/23 02:58:35;;;;;;;1.90;1.10;;;;;;;;;;5035735;28;20475;-73
2023/12/23 03:01:03;;;;;;;1.67;1.00;;;;;;;;;;5052933;28;20341;-72
2023/12/23 03:03:28;;;;;;;0.85;0.75;;;;;;;;;;5052339;28;20056;-72
2023/12/23 03:05:54;;;;;;;1.45;1.02;;;;;;;;;;5053752;28;20114;-72
2023/12/23 03:08:19;;;;;;;1.98;0.90;;;;;;;;;;5052399;28;20067;-72
2023/12/23 03:10:44;;;;;;;1.15;0.80;;;;;;;;;;5053470;28;20024;-72
2023/12/23 03:13:10;;;;;;;1.35;0.90;;;;;;;;;;5052224;28;20033;-72
2023/12/23 03:15:35;;;;;;;2.70;1.00;;;;;;;;;;5053436;28;20107;-73
2023/12/23 03:18:00;;;;;;;1.33;0.88;;;;;;;;;;5053368;28;20045;-73
2023/12/23 03:20:26;;;;;;;1.00;0.63;;;;;;;;;;5035552;28;20045;-73
2023/12/23 03:22:52;;;;;;;1.95;0.85;;;;;;;;;;5053350;28;20486;-72
2023/12/23 03:25:17;;;;;;;1.13;0.80;;;;;;;;;;5053372;28;20076;-72
2023/12/23 03:27:43;;;;;;;1.45;0.65;;;;;;;;;;5053878;28;20017;-72
2023/12/23 03:30:09;;;;;;;1.42;0.95;;;;;;;;;;5053898;28;20040;-72
2023/12/23 03:32:34;;;;;;;2.97;0.90;;;;;;;;;;5052038;28;20033;-71
2023/12/23 03:34:59;;;;;;;2.33;0.93;;;;;;;;;;5053820;28;20073;-71
2023/12/23 03:37:25;;;;;;;1.20;0.60;;;;;;;;;;5051998;28;20040;-71
2023/12/23 03:39:50;;;;;;;2.28;0.70;;;;;;;;;;5035424;28;20033;-71
2023/12/23 03:42:15;;;;;;;2.22;1.00;;;;;;;;;;5053750;28;20032;-71
2023/12/23 03:44:41;;;;;;;2.28;0.80;;;;;;;;;;5051924;28;20044;-71
2023/12/23 03:47:07;;;;;;;1.63;0.90;;;;;;;;;;5053467;28;20052;-71
2023/12/23 03:49:33;;;;;;;0.75;0.68;;;;;;;;;;5051895;28;20112;-71
2023/12/23 03:54:53;;;;;;;2.28;0.77;;;;;;;;;;5093104;22;20071;-71
2023/12/23 03:57:19;;;;;;;1.67;0.85;;;;;;;;;;5055150;28;20526;-72
2023/12/23 03:59:44;;;;;;;2.10;0.80;;;;;;;;;;5055420;28;20132;-72
2023/12/23 04:02:11;;;;;;;2.90;0.90;;;;;;;;;;5055130;28;20032;-72
2023/12/23 04:07:51;;;;;;;1.40;0.90;;;;;;;;;;5079150;22;20056;-71
2023/12/23 04:10:17;;;;;;;0.85;0.65;;;;;;;;;;5071617;28;20025;-72
2023/12/23 04:12:42;;;;;;;1.80;0.90;;;;;;;;;;5072934;28;20093;-72
2023/12/23 04:15:08;;;;;;;1.17;0.75;;;;;;;;;;5054837;28;20020;-72
2023/12/23 04:17:34;;;;;;;1.70;0.85;;;;;;;;;;5057651;28;20473;-72
2023/12/23 04:20:00;;;;;;;1.70;0.90;;;;;;;;;;5075113;28;20111;-72
2023/12/23 04:22:25;;;;;;;1.05;0.57;;;;;;;;;;5076367;28;20428;-72
2023/12/23 04:24:51;;;;;;;0.90;0.73;;;;;;;;;;5058427;28;20037;-72
2023/12/23 04:27:16;;;;;;;2.28;0.77;;;;;;;;;;5058419;28;20090;-72
2023/12/23 04:29:42;;;;;;;0.77;0.70;;;;;;;;;;5076345;28;20055;-72
2023/12/23 04:32:07;;;;;;;1.80;0.90;;;;;;;;;;5058523;28;20029;-72
2023/12/23 04:34:33;;;;;;;1.60;0.88;;;;;;;;;;5058260;28;20032;-72
2023/12/23 04:36:58;;;;;;;0.65;0.45;;;;;;;;;;5076173;28;20035;-72
2023/12/23 04:39:23;;;;;;;3.30;0.80;;;;;;;;;;5058093;28;20020;-72
2023/12/23 04:41:50;;;;;;;0.68;0.57;;;;;;;;;;5058438;28;20028;-72
2023/12/23 04:44:17;;;;;;;0.65;0.45;;;;;;;;;;5058136;28;20101;-72
2023/12/23 04:46:45;;;;;;;0.50;0.50;;;;;;;;;;5087299;22;20076;-72
2023/12/23 04:49:11;;;;;;;1.40;0.60;;;;;;;;;;5058086;28;20059;-72
2023/12/23 04:51:38;;;;;;;0.50;0.50;;;;;;;;;;5066780;23;20122;-72
2023/12/23 04:54:04;;;;;;;0.57;0.40;;;;;;;;;;5038013;28;20032;-73
2023/12/23 04:56:29;;;;;;;0.90;0.60;;;;;;;;;;5037934;28;20032;-73
2023/12/23 04:58:58;;;;;;;1.23;0.75;;;;;;;;;;5037862;28;20386;-73
2023/12/23 05:01:25;;;;;;;0.38;0.38;;;;;;;;;;5037870;28;20017;-72
2023/12/23 05:03:51;;;;;;;1.67;0.90;;;;;;;;;;5037800;28;20037;-73
2023/12/23 05:06:17;;;;;;;1.25;0.75;;;;;;;;;;5037720;28;20479;-72
2023/12/23 05:08:43;;;;;;;1.13;0.70;;;;;;;;;;5054656;28;20082;-72
2023/12/23 05:11:08;;;;;;;0.82;0.50;;;;;;;;;;5036551;28;20025;-73
2023/12/23 05:13:33;;;;;;;1.70;0.85;;;;;;;;;;5036513;28;20059;-73
2023/12/23 05:15:59;;;;;;;1.30;0.68;;;;;;;;;;5036498;28;20029;-73
2023/12/23 05:18:25;;;;;;;0.47;0.43;;;;;;;;;;5036389;28;20133;-73
2023/12/23 05:20:50;;;;;;;0.80;0.50;;;;;;;;;;5036403;28;20048;-72
2023/12/23 05:23:16;;;;;;;1.02;0.63;;;;;;;;;;5036374;28;20071;-72
2023/12/23 05:25:42;;;;;;;1.25;0.68;;;;;;;;;;5036252;28;20419;-74
2023/12/23 05:28:07;;;;;;;0.40;0.30;;;;;;;;;;5018667;28;20102;-73
2023/12/23 05:30:32;;;;;;;0.85;0.60;;;;;;;;;;5054162;28;20029;-72
2023/12/23 05:32:58;;;;;;;0.93;0.68;;;;;;;;;;5054455;28;20115;-73
2023/12/23 05:35:23;;;;;;;0.32;0.30;;;;;;;;;;5054026;28;20021;-73
2023/12/23 05:37:48;;;;;;;0.77;0.50;;;;;;;;;;5053934;28;20013;-73
2023/12/23 05:40:14;;;;;;;0.55;0.40;;;;;;;;;;5053879;28;20067;-73
2023/12/23 05:42:39;;;;;;;0.52;0.30;;;;;;;;;;5053874;28;20450;-73
2023/12/23 05:45:05;;;;;;;0.90;0.35;;;;;;;;;;5035945;28;20035;-72
2023/12/23 05:47:30;;;;;;;1.02;0.52;;;;;;;;;;5035810;28;20027;-71
2023/12/23 05:49:57;;;;;;;1.60;0.40;;;;;;;;;;5035908;28;20029;-72
2023/12/23 05:52:22;;;;;;;0.68;0.52;;;;;;;;;;5064147;28;20048;-72
2023/12/23 05:54:49;;;;;;;1.83;0.80;;;;;;;;;;5073553;28;20036;-71
2023/12/23 05:57:14;;;;;;;0.95;0.52;;;;;;;;;;5073561;28;20069;-71
2023/12/23 05:59:40;;;;;;;0.40;0.40;;;;;;;;;;5055536;28;20130;-72
2023/12/23 06:02:05;;;;;;;1.17;0.60;;;;;;;;;;5073509;28;20024;-72
2023/12/23 06:04:30;;;;;;;1.48;0.60;;;;;;;;;;5073712;28;20017;-70
2023/12/23 06:06:56;;;;;;;1.23;0.60;;;;;;;;;;5073596;28;20047;-72
2023/12/23 06:09:21;;;;;;;1.15;0.60;;;;;;;;;;5055578;28;20440;-72
2023/12/23 06:11:46;;;;;;;1.00;0.50;;;;;;;;;;5073324;28;20035;-72
2023/12/23 06:14:12;;;;;;;2.78;0.60;;;;;;;;;;5073235;28;20382;-72
2023/12/23 06:16:38;;;;;;;1.10;0.63;;;;;;;;;;5073205;28;20478;-69
2023/12/23 06:19:04;;;;;;;0.63;0.50;;;;;;;;;;5073797;28;20047;-68
2023/12/23 06:21:29;;;;;;;1.20;0.60;;;;;;;;;;5073493;28;20024;-68
2023/12/23 06:23:55;;;;;;;0.60;0.60;;;;;;;;;;5073262;28;20536;-71
2023/12/23 06:26:20;;;;;;;0.40;0.40;;;;;;;;;;5073168;28;20028;-69
2023/12/23 06:28:47;;;;;;;0.77;0.60;;;;;;;;;;5073601;28;20047;-72
2023/12/23 06:31:12;;;;;;;1.35;0.50;;;;;;;;;;5073893;28;20123;-72
2023/12/23 06:33:38;;;;;;;0.90;0.70;;;;;;;;;;5055387;28;20111;-72
2023/12/23 06:36:04;;;;;;;0.88;0.65;;;;;;;;;;5073158;28;20075;-72
2023/12/23 06:38:30;;;;;;;1.88;0.60;;;;;;;;;;5072693;28;20051;-72
2023/12/23 06:40:56;;;;;;;1.70;0.68;;;;;;;;;;5072579;28;20467;-72
2023/12/23 06:43:21;;;;;;;0.55;0.50;;;;;;;;;;5072775;28;20028;-71
2023/12/23 06:45:46;;;;;;;0.32;0.32;;;;;;;;;;5054878;28;20016;-73
2023/12/23 06:48:12;;;;;;;1.52;0.75;;;;;;;;;;5072706;28;20115;-74
2023/12/23 06:50:38;;;;;;;0.52;0.52;;;;;;;;;;5072801;28;20028;-73
2023/12/23 06:53:06;;;;;;;0.82;0.40;;;;;;;;;;5072742;28;20544;-72
2023/12/23 06:55:31;;;;;;;1.20;0.65;;;;;;;;;;5072953;28;20036;-72
2023/12/23 06:57:57;;;;;;;1.35;0.60;;;;;;;;;;5072662;28;20017;-72
2023/12/23 07:00:22;;;;;;;0.90;0.73;;;;;;;;;;5054672;28;20461;-72
2023/12/23 07:02:49;;;;;;;0.40;0.40;;;;;;;;;;5072603;28;20107;-72
2023/12/23 07:05:14;;;;;;;1.13;0.80;;;;;;;;;;5072501;28;20009;-72
2023/12/23 07:07:39;;;;;;;0.43;0.43;;;;;;;;;;5054574;28;20024;-73
2023/12/23 07:10:05;;;;;;;0.90;0.80;;;;;;;;;;5054460;28;20493;-73
2023/12/23 07:12:30;;;;;;;1.48;0.98;;;;;;;;;;5054588;28;20104;-73
2023/12/23 07:14:56;;;;;;;0.77;0.60;;;;;;;;;;5072422;28;20390;-72
2023/12/23 07:17:21;;;;;;;1.42;0.70;;;;;;;;;;5054508;28;20406;-71
2023/12/23 07:19:46;;;;;;;1.08;0.77;;;;;;;;;;5072548;28;20413;-72
2023/12/23 07:22:12;;;;;;;1.92;0.60;;;;;;;;;;5054390;28;20538;-71
2023/12/23 07:24:38;;;;;;;1.02;0.70;;;;;;;;;;5054469;28;20047;-72
2023/12/23 07:27:04;;;;;;;1.35;0.90;;;;;;;;;;5072288;28;20021;-71
2023/12/23 07:29:29;;;;;;;1.48;0.75;;;;;;;;;;5072582;28;20039;-72
2023/12/23 07:31:55;;;;;;;1.50;0.65;;;;;;;;;;5072294;28;20033;-73
2023/12/23 07:34:20;;;;;;;0.75;0.57;;;;;;;;;;5054467;28;20029;-74
2023/12/23 07:36:45;;;;;;;0.60;0.60;;;;;;;;;;5054345;28;20021;-73
2023/12/23 07:39:11;;;;;;;1.10;0.50;;;;;;;;;;5072240;28;20029;-73
2023/12/23 07:41:36;;;;;;;0.98;0.90;;;;;;;;;;5037521;28;20031;-73
2023/12/23 07:44:01;;;;;;;0.55;0.40;;;;;;;;;;5071860;28;20063;-74
2023/12/23 07:46:27;;;;;;;0.30;0.22;;;;;;;;;;5054243;28;20036;-74
2023/12/23 07:48:52;;;;;;;1.20;0.57;;;;;;;;;;5071762;28;20032;-74
2023/12/23 07:51:18;;;;;;;0.85;0.70;;;;;;;;;;5054826;28;20138;-74
2023/12/23 07:53:44;;;;;;;0.88;0.70;;;;;;;;;;5075624;28;20123;-74
2023/12/23 07:56:09;;;;;;;0.50;0.50;;;;;;;;;;5076221;28;20120;-73
2023/12/23 07:58:34;;;;;;;0.85;0.75;;;;;;;;;;5075811;28;20115;-74
2023/12/23 08:01:01;;;;;;;0.90;0.57;;;;;;;;;;5075829;28;20067;-74
2023/12/23 08:03:26;;;;;;;0.77;0.55;;;;;;;;;;5076060;28;20112;-74
2023/12/23 08:05:51;;;;;;;1.33;0.60;;;;;;;;;;5059142;28;20056;-74
2023/12/23 08:08:17;;;;;;;0.82;0.50;;;;;;;;;;5059126;28;20442;-74
2023/12/23 08:10:42;;;;;;;0.52;0.43;;;;;;;;;;5057930;28;20043;-74
2023/12/23 08:13:08;;;;;;;0.88;0.70;;;;;;;;;;5058216;28;20065;-74
2023/12/23 08:15:33;;;;;;;0.70;0.65;;;;;;;;;;5075651;28;20118;-75
2023/12/23 08:17:58;;;;;;;1.58;0.82;;;;;;;;;;5057868;28;20107;-75
2023/12/23 08:20:24;;;;;;;0.43;0.43;;;;;;;;;;5057670;28;20062;-76
2023/12/23 08:22:49;;;;;;;2.47;0.60;;;;;;;;;;5075652;28;20107;-76
2023/12/23 08:25:15;;;;;;;0.50;0.40;;;;;;;;;;5057479;28;20032;-76
2023/12/23 08:27:41;;;;;;;0.85;0.45;;;;;;;;;;5074291;28;20044;-76
2023/12/23 08:30:07;;;;;;;1.60;0.70;;;;;;;;;;5075159;28;20039;-76
2023/12/23 08:32:32;;;;;;;1.05;0.95;;;;;;;;;;5075363;28;20060;-76
2023/12/23 08:34:58;;;;;;;0.43;0.43;;;;;;;;;;5057427;28;20453;-75
2023/12/23 08:37:23;;;;;;;0.93;0.82;;;;;;;;;;5075033;28;20036;-75
2023/12/23 08:39:50;;;;;;;0.57;0.50;;;;;;;;;;5041275;28;20030;-75
2023/12/23 08:42:15;;;;;;;1.08;0.88;;;;;;;;;;5075274;28;20056;-75
2023/12/23 08:44:41;;;;;;;0.90;0.68;;;;;;;;;;5073733;28;20055;-74
2023/12/23 08:47:07;;;;;;;1.30;1.00;;;;;;;;;;5075982;28;20063;-75
2023/12/23 08:49:33;;;;;;;1.05;0.90;;;;;;;;;;5076091;28;20073;-70
2023/12/23 08:51:58;;;;;;;1.90;0.77;;;;;;;;;;5057567;28;20494;-71
2023/12/23 08:54:23;;;;;;;1.67;0.90;;;;;;;;;;5057545;28;20020;-71
2023/12/23 08:56:49;;;;;;;1.02;0.68;;;;;;;;;;5075145;28;20029;-71
2023/12/23 08:59:14;;;;;;;0.35;0.35;;;;;;;;;;5073837;28;20036;-71
2023/12/23 09:01:40;;;;;;;1.15;0.80;;;;;;;;;;5074748;28;20024;-71
2023/12/23 09:04:05;;;;;;;0.57;0.50;;;;;;;;;;5073100;28;20028;-71
2023/12/23 09:06:30;;;;;;;0.82;0.77;;;;;;;;;;5074907;28;20036;-70
2023/12/23 09:08:58;;;;;;;1.00;0.90;;;;;;;;;;5074438;28;20079;-70
2023/12/23 09:11:24;;;;;;;1.85;0.50;;;;;;;;;;5073699;28;20078;-70
2023/12/23 09:13:49;;;;;;;0.75;0.63;;;;;;;;;;5072308;28;20029;-70
2023/12/23 09:16:15;;;;;;;0.45;0.45;;;;;;;;;;5073887;28;20029;-70
2023/12/23 09:18:53;;;;;;;1.15;0.90;;;;;;;;;;5072807;28;20394;-71
2023/12/23 09:21:18;;;;;;;1.38;0.80;;;;;;;;;;5056465;28;20078;-70
2023/12/23 09:23:44;;;;;;;2.05;0.95;;;;;;;;;;5074161;28;20040;-70
2023/12/23 09:26:10;;;;;;;1.98;1.20;;;;;;;;;;5056111;28;20039;-70
2023/12/23 09:28:36;;;;;;;2.05;1.05;;;;;;;;;;5055996;28;20060;-70
2023/12/23 09:31:01;;;;;;;1.25;0.70;;;;;;;;;;5073780;28;20549;-70
2023/12/23 09:33:27;;;;;;;1.25;1.10;;;;;;;;;;5075012;28;20071;-71
2023/12/23 09:35:53;;;;;;;1.58;0.85;;;;;;;;;;5074889;28;20044;-70
2023/12/23 09:38:19;;;;;;;0.82;0.63;;;;;;;;;;5074889;28;20474;-71
2023/12/23 09:40:44;;;;;;;0.88;0.68;;;;;;;;;;5074011;28;20028;-70
2023/12/23 09:43:10;;;;;;;0.90;0.80;;;;;;;;;;5074235;28;20021;-71
2023/12/23 09:45:36;;;;;;;1.35;1.00;;;;;;;;;;5056624;28;20033;-72
2023/12/23 09:48:02;;;;;;;1.08;0.98;;;;;;;;;;5073356;28;20117;-72
2023/12/23 09:50:27;;;;;;;0.88;0.88;;;;;;;;;;5073509;28;20027;-72
2023/12/23 09:52:55;;;;;;;1.00;0.88;;;;;;;;;;5055640;28;20072;-72
2023/12/23 09:55:20;;;;;;;1.08;0.70;;;;;;;;;;5055646;28;20037;-69
2023/12/23 09:57:46;;;;;;;2.92;1.38;;;;;;;;;;5073572;28;20112;-73
2023/12/23 10:00:11;;;;;;;1.67;0.90;;;;;;;;;;5074020;28;20036;-74
2023/12/23 10:02:37;;;;;;;0.88;0.75;;;;;;;;;;5074342;28;20093;-73
2023/12/23 10:05:02;;;;;;;0.80;0.80;;;;;;;;;;5073853;28;20039;-73
2023/12/23 10:07:28;;;;;;;0.88;0.85;;;;;;;;;;5073418;28;20032;-73
2023/12/23 10:09:53;;;;;;;0.93;0.70;;;;;;;;;;5073248;28;20032;-73
2023/12/23 10:12:20;;;;;;;2.13;0.93;;;;;;;;;;5073210;28;20025;-73
2023/12/23 10:14:47;;;;;;;0.95;0.70;;;;;;;;;;5072620;28;20044;-73
2023/12/23 10:17:13;;;;;;;0.82;0.80;;;;;;;;;;5073232;28;20025;-73
2023/12/23 10:19:38;;;;;;;1.42;0.90;;;;;;;;;;5054920;28;20024;-73
2023/12/23 10:22:04;;;;;;;0.75;0.75;;;;;;;;;;5072034;28;20027;-73
2023/12/23 10:24:29;;;;;;;2.10;1.20;;;;;;;;;;5055107;28;20016;-74
2023/12/23 10:26:55;;;;;;;2.92;1.23;;;;;;;;;;5072985;28;20064;-73
2023/12/23 10:29:21;;;;;;;1.60;1.20;;;;;;;;;;5072730;28;20024;-73
2023/12/23 10:31:50;;;;;;;1.40;1.20;;;;;;;;;;5055202;28;20394;-73
2023/12/23 10:34:17;;;;;;;2.45;1.30;;;;;;;;;;5054797;28;20081;-73
2023/12/23 10:36:44;;;;;;;2.42;1.30;;;;;;;;;;5072959;28;20040;-71
2023/12/23 10:39:14;;;;;;;2.20;1.20;;;;;;;;;;5071341;28;20391;-73
2023/12/23 10:41:45;;;;;;;3.45;0.98;;;;;;;;;;5072933;28;20466;-73
2023/12/23 10:44:11;;;;;;;4.28;1.38;;;;;;;;;;5054807;28;20020;-73
2023/12/23 10:46:36;;;;;;;4.03;2.15;;;;;;;;;;5072726;28;20051;-65
2023/12/23 10:49:03;;;;;;;3.67;1.85;;;;;;;;;;5053728;28;20078;-80
2023/12/23 10:51:28;;;;;;;2.65;1.83;;;;;;;;;;5054700;28;20056;-81
2023/12/23 10:53:55;;;;;;;4.15;2.00;;;;;;;;;;5054691;28;20482;-81
2023/12/23 10:56:22;;;;;;;3.30;1.65;;;;;;;;;;5072940;28;20028;-76
2023/12/23 10:58:47;;;;;;;3.65;2.13;;;;;;;;;;5072479;28;20041;-79
2023/12/23 11:01:17;;;;;;;3.42;2.38;;;;;;;;;;5073362;28;20039;-77
2023/12/23 11:03:43;;;;;;;5.15;2.10;;;;;;;;;;5072683;28;20048;-76
2023/12/23 11:06:09;;;;;;;1.73;1.52;;;;;;;;;;5072718;28;20028;-76
2023/12/23 11:08:37;;;;;;;5.05;1.92;;;;;;;;;;5054713;28;20036;-76
2023/12/23 11:11:04;;;;;;;3.33;2.58;;;;;;;;;;5073353;28;20043;-76
2023/12/23 11:13:30;;;;;;;4.78;2.60;;;;;;;;;;5073302;28;20024;-76
2023/12/23 11:15:57;;;;;;;4.10;1.73;;;;;;;;;;5072360;28;20029;-76
2023/12/23 11:18:22;;;;;;;2.92;2.05;;;;;;;;;;5071870;28;20021;-76
2023/12/23 11:20:49;;;;;;;2.90;1.98;;;;;;;;;;5072342;28;20028;-80
2023/12/23 11:23:28;;;;;;;2.58;2.05;;;;;;;;;;5054325;28;20029;-67
2023/12/23 11:25:55;;;;;;;5.85;3.47;;;;;;;;;;5054702;28;20060;-81
2023/12/23 11:28:21;;;;;;;3.65;2.65;;;;;;;;;;5058564;28;20374;-79
2023/12/23 11:30:50;;;;;;;5.85;2.83;;;;;;;;;;5058452;28;20017;-79
2023/12/23 11:33:22;;;;;;;5.07;2.88;;;;;;;;;;5074666;28;20068;-78
2023/12/23 11:35:52;;;;;;;5.88;2.92;;;;;;;;;;5076126;28;20070;-77
2023/12/23 11:38:17;;;;;;;8.38;3.60;;;;;;;;;;5075756;28;20459;-76
2023/12/23 11:40:43;;;;;;;8.40;3.95;;;;;;;;;;5075982;28;20044;-77
2023/12/23 11:43:08;;;;;;;5.90;3.50;;;;;;;;;;5057994;28;20020;-76
2023/12/23 11:45:35;;;;;;;4.10;2.47;;;;;;;;;;5075830;28;20021;-76
2023/12/23 11:48:00;;;;;;;10.82;4.75;;;;;;;;;;5075818;28;20531;-76
2023/12/23 11:50:26;;;;;;;8.07;4.43;;;;;;;;;;5075020;28;20032;-76
2023/12/23 11:52:53;;;;;;;11.93;5.25;;;;;;;;;;5044094;28;20386;-76
2023/12/23 11:55:18;;;;;;;11.80;4.18;;;;;;;;;;5038368;28;20029;-76
2023/12/23 11:57:44;;;;;;;9.27;4.18;;;;;;;;;;5038217;28;20541;-76
2023/12/23 12:00:09;;;;;;;7.10;3.83;;;;;;;;;;5055861;28;20446;-75
2023/12/23 12:02:35;;;;;;;8.13;4.28;;;;;;;;;;5055774;28;20025;-75
2023/12/23 12:05:01;;;;;;;7.75;3.97;;;;;;;;;;5056285;28;20035;-74
2023/12/23 12:07:49;;;;;;;13.75;5.90;;;;;;;;;;5056575;28;20021;-77
2023/12/23 12:10:14;;;;;;;11.20;4.53;;;;;;;;;;5056506;28;20029;-78
2023/12/23 12:12:40;;;;;;;9.40;4.38;;;;;;;;;;5038461;28;20094;-73
2023/12/23 12:15:05;;;;;;;11.23;4.40;;;;;;;;;;5055729;28;20158;-74
2023/12/23 12:17:32;;;;;;;9.85;4.57;;;;;;;;;;5055175;28;20025;-74
2023/12/23 12:19:57;;;;;;;8.15;4.15;;;;;;;;;;5037524;28;20108;-75
2023/12/23 12:22:22;;;;;;;7.70;4.03;;;;;;;;;;5055390;28;20514;-75
2023/12/23 12:24:48;;;;;;;8.18;4.10;;;;;;;;;;5055351;28;20043;-74
2023/12/23 12:27:13;;;;;;;6.45;3.60;;;;;;;;;;5055170;28;20053;-76
2023/12/23 12:29:39;;;;;;;5.75;3.33;;;;;;;;;;5055171;28;20032;-76
2023/12/23 12:32:04;;;;;;;9.05;4.30;;;;;;;;;;5055069;28;20037;-76
2023/12/23 12:34:30;;;;;;;9.95;4.10;;;;;;;;;;5037206;28;20056;-75
2023/12/23 12:36:56;;;;;;;7.78;3.67;;;;;;;;;;5054408;28;20025;-76
2023/12/23 12:39:21;;;;;;;5.43;3.53;;;;;;;;;;5037230;28;20082;-76
2023/12/23 12:41:50;;;;;;;9.05;4.20;;;;;;;;;;5054926;28;20467;-76
2023/12/23 12:44:16;;;;;;;6.20;3.88;;;;;;;;;;5037096;28;20031;-75
2023/12/23 12:46:41;;;;;;;6.10;3.38;;;;;;;;;;5054588;28;20028;-76
2023/12/23 12:49:07;;;;;;;6.03;3.40;;;;;;;;;;5054572;28;20021;-76
2023/12/23 12:51:35;;;;;;;3.22;2.08;;;;;;;;;;5039644;28;20137;-76
2023/12/23 12:54:01;;;;;;;1.55;0.98;;;;;;;;;;5056699;28;20494;-77
2023/12/23 12:56:26;;;;;;;6.05;2.65;;;;;;;;;;5074640;28;20025;-77
2023/12/23 12:58:52;;;;;;;4.20;2.35;;;;;;;;;;5056555;28;20040;-76
2023/12/23 13:01:18;;;;;;;3.28;2.38;;;;;;;;;;5073533;28;20597;-78
2023/12/23 13:03:44;;;;;;;3.70;2.58;;;;;;;;;;5056591;28;20028;-77
2023/12/23 13:06:10;;;;;;;3.42;2.67;;;;;;;;;;5056643;28;20095;-77
2023/12/23 13:08:36;;;;;;;6.95;3.15;;;;;;;;;;5040336;28;20133;-80
2023/12/23 13:11:01;;;;;;;8.60;3.13;;;;;;;;;;5074655;28;20025;-80
2023/12/23 13:13:26;;;;;;;3.88;1.48;;;;;;;;;;5056868;28;20070;-79
2023/12/23 13:15:52;;;;;;;5.80;2.90;;;;;;;;;;5056449;28;20398;-80
2023/12/23 13:18:18;;;;;;;4.35;3.00;;;;;;;;;;5056085;28;20025;-80
2023/12/23 13:20:48;;;;;;;4.45;2.83;;;;;;;;;;5056796;28;20020;-76
2023/12/23 13:23:14;;;;;;;2.50;2.22;;;;;;;;;;5074806;28;20028;-76
2023/12/23 13:25:40;;;;;;;2.15;1.95;;;;;;;;;;5074229;28;20459;-76
2023/12/23 13:28:05;;;;;;;3.72;2.47;;;;;;;;;;5056087;28;20029;-80
2023/12/23 13:30:32;;;;;;;4.32;2.67;;;;;;;;;;5074426;28;20534;-79
2023/12/23 13:32:57;;;;;;;4.10;2.50;;;;;;;;;;5074787;28;20067;-79
2023/12/23 13:35:23;;;;;;;3.45;1.85;;;;;;;;;;5056392;28;20056;-79
2023/12/23 13:37:48;;;;;;;2.05;1.80;;;;;;;;;;5074015;28;20069;-79
2023/12/23 13:40:14;;;;;;;2.90;1.85;;;;;;;;;;5073821;28;20037;-79
2023/12/23 13:42:39;;;;;;;2.28;1.80;;;;;;;;;;5055655;28;20027;-81
2023/12/23 13:45:05;;;;;;;2.97;1.98;;;;;;;;;;5055924;28;20024;-81
2023/12/23 13:47:31;;;;;;;3.45;2.65;;;;;;;;;;5055763;28;20032;-81
2023/12/23 13:49:56;;;;;;;2.70;2.20;;;;;;;;;;5054820;28;20474;-80
2023/12/23 13:52:22;;;;;;;2.92;1.63;;;;;;;;;;5045999;28;20479;-80
2023/12/23 13:54:47;;;;;;;2.65;1.95;;;;;;;;;;5053889;28;20029;-81
2023/12/23 13:57:13;;;;;;;1.63;1.30;;;;;;;;;;5035902;28;20063;-80
2023/12/23 13:59:38;;;;;;;2.60;1.95;;;;;;;;;;5035648;28;20040;-81
2023/12/23 14:02:07;;;;;;;2.92;1.65;;;;;;;;;;5053611;28;20029;-81
2023/12/23 14:04:33;;;;;;;3.67;2.20;;;;;;;;;;5053509;28;20019;-74
2023/12/23 14:07:00;;;;;;;2.15;1.95;;;;;;;;;;5053525;28;20025;-75
2023/12/23 14:09:25;;;;;;;2.22;2.03;;;;;;;;;;5053194;28;20479;-76
2023/12/23 14:11:51;;;;;;;3.17;2.28;;;;;;;;;;5053760;28;20031;-75
2023/12/23 14:14:16;;;;;;;2.30;1.90;;;;;;;;;;5055535;28;20104;-75
2023/12/23 14:16:42;;;;;;;2.80;2.08;;;;;;;;;;5055473;28;20033;-76
2023/12/23 14:19:08;;;;;;;9.40;5.15;;;;;;;;;;5052547;28;20067;-76
2023/12/23 14:21:33;;;;;;;9.75;4.78;;;;;;;;;;5053611;28;20065;-76
2023/12/23 14:23:59;;;;;;;7.97;3.72;;;;;;;;;;5035477;28;20044;-78
2023/12/23 14:26:27;;;;;;;2.58;2.08;;;;;;;;;;5053447;28;20035;-78
2023/12/23 14:28:54;;;;;;;2.85;2.17;;;;;;;;;;5053851;28;20086;-78
2023/12/23 14:31:22;;;;;;;3.00;2.38;;;;;;;;;;5036192;28;20017;-79
2023/12/23 14:33:48;;;;;;;4.25;3.00;;;;;;;;;;5053024;28;20383;-79
2023/12/23 14:36:13;;;;;;;3.53;2.40;;;;;;;;;;5052436;28;20017;-79
2023/12/23 14:38:39;;;;;;;4.65;2.65;;;;;;;;;;5052844;28;20162;-79
2023/12/23 14:41:05;;;;;;;2.83;2.38;;;;;;;;;;5035045;28;20033;-78
2023/12/23 14:43:30;;;;;;;2.67;2.47;;;;;;;;;;5052697;28;20134;-79
2023/12/23 14:45:56;;;;;;;4.13;2.80;;;;;;;;;;5052720;28;20025;-79